CST,Max TemperatureF,Mean TemperatureF,Min TemperatureF,Max Dew PointF,MeanDew PointF,Min DewpointF,Max Humidity, Mean Humidity, Min Humidity, Max Sea Level PressureIn, Mean Sea Level PressureIn, Min Sea Level PressureIn, Max VisibilityMiles, Mean VisibilityMiles, Min VisibilityMiles, Max Wind SpeedMPH, Mean Wind SpeedMPH, Max Gust SpeedMPH,PrecipitationIn, CloudCover, Events, WindDirDegrees
2013-2-1,30,15,0,17,8,-4,95,75,55,30.51,30.34,30.14,10,10,10,22,5,28,T,1,,216
2013-2-2,50,37,23,34,27,17,81,67,52,30.26,30.20,30.13,10,10,10,16,6,21,0.00,2,,251
2013-2-3,56,40,24,28,24,20,81,54,26,30.31,30.12,29.83,10,10,10,18,5,24,0.00,0,,196
2013-2-4,46,35,24,29,26,22,88,71,53,30.02,29.95,29.81,10,9,5,18,4,23,0.00,1,,13
2013-2-5,61,42,22,31,26,19,92,61,29,30.11,30.01,29.93,10,9,5,10,3,14,0.00,0,,301
2013-2-6,68,47,26,50,40,22,96,65,34,30.09,29.93,29.82,10,9,2,22,6,28,0.03,4,Rain,177
2013-2-7,54,43,31,49,41,28,93,67,41,30.26,29.98,29.84,10,7,2,16,6,23,0.59,5,Rain-Thunderstorm,352
2013-2-8,47,38,29,30,28,26,92,73,53,30.38,30.28,30.18,10,6,2,12,5,14,0.00,5,,108
2013-2-9,55,43,31,40,35,28,85,72,59,30.18,29.91,29.67,10,9,6,23,11,30,T,4,Rain-Thunderstorm,151
2013-2-10,49,42,35,45,33,23,92,71,49,30.00,29.61,29.42,10,10,3,32,19,45,0.02,6,Rain,228
2013-2-11,46,35,23,24,21,17,81,57,33,30.23,30.15,30.02,10,10,10,13,6,20,0.00,0,,274
2013-2-12,46,33,20,27,22,18,88,63,37,30.22,30.09,29.99,10,10,10,9,3,12,0.00,1,,235
2013-2-13,57,40,22,26,23,19,88,57,26,29.99,29.91,29.83,10,10,10,18,6,25,0.00,0,,246
2013-2-14,50,39,27,31,25,20,85,61,36,30.30,30.09,29.89,10,10,10,20,6,29,0.00,2,,288
2013-2-15,42,29,16,21,17,13,80,59,37,30.46,30.38,30.29,10,10,10,20,6,31,T,2,,335
2013-2-16,46,30,14,21,16,12,84,58,31,30.39,30.22,30.04,10,10,10,21,6,24,0.00,3,,205
2013-2-17,68,44,20,32,26,17,84,54,24,30.03,29.83,29.57,10,10,10,17,5,22,0.00,0,,172
2013-2-18,55,37,19,34,27,15,74,58,41,30.16,29.79,29.45,10,10,3,23,11,39,T,4,Rain,333
2013-2-19,38,28,18,18,9,2,84,54,23,30.38,30.31,30.17,10,10,10,13,6,26,0.00,0,,330
2013-2-20,28,23,18,18,9,2,74,58,42,30.39,30.25,30.13,10,8,2,16,11,22,T,6,Snow,79
2013-2-21,26,24,21,22,19,12,92,71,50,30.10,29.86,29.75,10,3,0,23,13,29,0.25,8,Fog-Rain-Snow,52
2013-2-22,28,19,10,18,13,7,92,75,57,30.15,30.02,29.87,10,10,6,13,6,17,0.00,2,,271
2013-2-23,28,13,4,15,7,-2,76,67,58,30.07,29.98,29.89,10,9,6,10,4,,0.00,0,,209
2013-2-24,41,28,14,29,27,24,75,65,54,29.98,29.93,29.86,10,9,7,13,6,,0.01,4,Rain,54
2013-2-25,38,36,33,31,29,27,82,73,64,30.01,29.91,29.80,10,7,2,24,14,30,0.01,8,Rain-Snow,29
2013-2-26,36,33,30,29,27,25,92,81,70,29.96,29.84,29.75,6,3,1,15,8,24,0.09,8,Snow,349
2013-2-27,43,36,28,28,25,21,92,71,49,30.16,30.02,29.92,10,7,1,18,7,29,0.02,5,Snow,318
2013-2-28,35,32,29,27,25,23,85,75,64,30.27,30.22,30.13,10,10,10,13,6,18,0.00,7,,349